Time;durP1;ratioP1;P1;durP2;ratioP2;P2;SDS_P1;SDS_P2;PMS_P1;PMS_P2;Temp;Humidity;BMP_temperature;BMP_pressure;BME280_temperature;BME280_humidity;BME280_pressure;Samples;Min_cycle;Max_cycle;Signal;HPM_P1;HPM_P2
2022/12/21 00:01:13;;;;;;;46.60;18.07;;;;;;;-2.47;100.00;98058.25;6286871;28;20601;-72
2022/12/21 00:04:15;;;;;;;41.33;17.30;;;;;;;-2.49;100.00;98066.03;6294237;28;20622;-72
2022/12/21 00:07:17;;;;;;;40.30;16.87;;;;;;;-2.51;100.00;98072.13;6279585;28;20280;-72
2022/12/21 00:10:19;;;;;;;34.27;16.20;;;;;;;-2.49;100.00;98071.19;6292980;28;20230;-72
2022/12/21 00:13:21;;;;;;;36.43;16.10;;;;;;;-2.48;100.00;98065.13;6292343;28;20230;-72
2022/12/21 00:16:25;;;;;;;36.60;15.90;;;;;;;-2.48;100.00;98065.13;6293339;28;20747;-72
2022/12/21 00:19:27;;;;;;;35.83;16.70;;;;;;;-2.49;100.00;98058.28;6291813;28;20237;-72
2022/12/21 00:22:29;;;;;;;34.03;15.63;;;;;;;-2.50;100.00;98064.34;6292031;28;20233;-72
2022/12/21 00:25:34;;;;;;;32.80;16.50;;;;;;;-2.46;100.00;98057.34;6289205;28;20238;-72
2022/12/21 00:28:36;;;;;;;31.00;15.97;;;;;;;-2.44;100.00;98064.19;6292155;28;20712;-71
2022/12/21 00:31:39;;;;;;;32.50;15.30;;;;;;;-2.43;100.00;98067.63;6272501;28;20225;-73
2022/12/21 00:34:41;;;;;;;26.73;13.87;;;;;;;-2.42;100.00;98074.50;6272177;28;20233;-72
2022/12/21 00:37:45;;;;;;;31.73;15.13;;;;;;;-2.39;100.00;98084.75;6273441;28;20217;-72
2022/12/21 00:40:56;;;;;;;36.77;16.17;;;;;;;-2.39;100.00;98093.34;6276281;28;20230;-72
2022/12/21 00:43:58;;;;;;;30.47;16.23;;;;;;;-2.37;100.00;98083.84;6280126;28;20227;-72
2022/12/21 00:47:00;;;;;;;32.70;14.23;;;;;;;-2.36;100.00;98093.28;6290975;28;20222;-72
2022/12/21 00:50:02;;;;;;;31.13;13.97;;;;;;;-2.36;100.00;98080.38;6273736;28;20230;-72
2022/12/21 00:53:05;;;;;;;33.87;15.70;;;;;;;-2.35;100.00;98091.56;6292982;28;20236;-72
2022/12/21 00:56:08;;;;;;;35.33;16.53;;;;;;;-2.36;100.00;98093.28;6272257;28;20226;-72
2022/12/21 00:59:10;;;;;;;35.03;15.23;;;;;;;-2.37;100.00;98089.00;6291124;28;20263;-72
2022/12/21 01:02:12;;;;;;;32.87;16.43;;;;;;;-2.40;100.00;98081.34;6288089;28;20578;-72
2022/12/21 01:05:17;;;;;;;32.07;15.47;;;;;;;-2.42;100.00;98085.69;6290896;28;20226;-72
2022/12/21 01:08:21;;;;;;;33.10;15.57;;;;;;;-2.44;100.00;98069.38;6291209;28;20688;-71
2022/12/21 01:11:24;;;;;;;36.37;16.40;;;;;;;-2.49;100.00;98058.28;6270344;28;20221;-72
2022/12/21 01:14:27;;;;;;;38.13;16.90;;;;;;;-2.50;100.00;98061.75;6270683;28;20660;-72
2022/12/21 01:17:29;;;;;;;31.70;15.70;;;;;;;-2.53;100.00;98054.06;6287125;28;20226;-72
2022/12/21 01:20:31;;;;;;;39.97;16.47;;;;;;;-2.50;100.00;98068.66;6295015;28;20237;-71
2022/12/21 01:23:33;;;;;;;36.57;17.10;;;;;;;-2.52;100.00;98078.19;6274280;28;20226;-72
2022/12/21 01:26:35;;;;;;;40.13;17.30;;;;;;;-2.57;100.00;98078.25;6292911;28;20222;-71
2022/12/21 01:29:37;;;;;;;37.63;18.33;;;;;;;-2.63;100.00;98081.00;6289694;28;20217;-72
2022/12/21 01:32:39;;;;;;;34.93;18.30;;;;;;;-2.63;100.00;98088.75;6272700;28;20230;-73
2022/12/21 01:35:42;;;;;;;43.00;18.87;;;;;;;-2.61;100.00;98079.22;6272520;28;20226;-72
2022/12/21 01:38:46;;;;;;;40.40;17.23;;;;;;;-2.61;100.00;98068.91;6279404;28;20368;-72
2022/12/21 01:41:48;;;;;;;31.83;16.00;;;;;;;-2.59;100.00;98068.88;6274490;28;20708;-70
2022/12/21 01:45:21;;;;;;;44.40;18.67;;;;;;;-2.59;100.00;98071.44;6260080;28;20245;-72
2022/12/21 01:48:23;;;;;;;41.33;17.07;;;;;;;-2.65;100.00;98077.59;6263610;28;20230;-72
2022/12/21 01:51:25;;;;;;;33.50;15.67;;;;;;;-2.65;100.00;98082.75;6274027;28;20229;-72
2022/12/21 01:54:33;;;;;;;29.97;15.43;;;;;;;-2.70;100.00;98076.84;6272668;28;20851;-72
2022/12/21 01:57:35;;;;;;;36.57;16.57;;;;;;;-2.72;100.00;98061.38;6289321;28;20222;-71
2022/12/21 02:00:39;;;;;;;38.97;17.13;;;;;;;-2.68;100.00;98051.81;6292831;28;20383;-72
2022/12/21 02:03:51;;;;;;;33.00;16.23;;;;;;;-2.65;100.00;98052.59;6290449;28;20732;-72
2022/12/21 02:06:56;;;;;;;35.77;16.03;;;;;;;-2.64;100.00;98050.88;6269742;28;20222;-72
2022/12/21 02:09:59;;;;;;;33.17;15.47;;;;;;;-2.65;100.00;98041.41;6289630;28;20300;-72
2022/12/21 02:13:05;;;;;;;28.83;15.30;;;;;;;-2.63;100.00;98025.00;6291017;28;20230;-72
2022/12/21 02:16:25;;;;;;;32.63;15.53;;;;;;;-2.59;100.00;98028.34;6258411;28;20225;-72
2022/12/21 02:19:59;;;;;;;37.63;15.97;;;;;;;-2.62;100.00;98025.88;6289907;28;20360;-72
2022/12/21 02:23:25;;;;;;;27.80;14.77;;;;;;;-2.64;100.00;98030.22;6277499;28;20244;-72
2022/12/21 02:26:52;;;;;;;34.60;15.70;;;;;;;-2.64;100.00;98035.38;6290430;28;20705;-72
2022/12/21 02:30:07;;;;;;;32.33;15.27;;;;;;;-2.67;100.00;98053.50;6287137;28;20232;-72
2022/12/21 02:33:44;;;;;;;39.87;18.03;;;;;;;-2.71;100.00;98075.16;6286231;28;20678;-73
2022/12/21 02:37:13;;;;;;;34.70;17.67;;;;;;;-2.70;100.00;98077.69;6272576;28;20241;-72
2022/12/21 02:40:33;;;;;;;36.57;15.33;;;;;;;-2.65;100.00;98090.50;6290225;28;20237;-72
2022/12/21 02:47:11;;;;;;;39.47;17.07;;;;;;;-2.63;100.00;98083.56;6289477;28;20223;-72
2022/12/21 02:50:15;;;;;;;34.97;15.60;;;;;;;-2.60;100.00;98088.69;6269964;28;20383;-72
2022/12/21 02:53:22;;;;;;;36.57;17.17;;;;;;;-2.64;100.00;98077.56;6291031;28;20229;-73
2022/12/21 02:56:24;;;;;;;40.97;17.63;;;;;;;-2.65;100.00;98075.84;6289995;28;20233;-72
2022/12/21 02:59:31;;;;;;;40.40;17.50;;;;;;;-2.64;100.00;98064.63;6288871;28;20226;-71
2022/12/21 03:02:49;;;;;;;40.27;17.33;;;;;;;-2.64;100.00;98062.06;6278236;28;20213;-72
2022/12/21 03:06:14;;;;;;;39.17;18.43;;;;;;;-2.66;100.00;98060.38;6255974;28;20233;-72
2022/12/21 03:09:52;;;;;;;45.03;18.27;;;;;;;-2.71;100.00;98063.09;6290612;28;20241;-72
2022/12/21 03:13:27;;;;;;;42.97;17.90;;;;;;;-2.72;100.00;98063.09;6286667;28;20230;-72
2022/12/21 03:16:44;;;;;;;34.37;15.07;;;;;;;-2.72;100.00;98063.97;6285920;28;20541;-72
2022/12/21 03:20:09;;;;;;;37.10;17.20;;;;;;;-2.68;100.00;98051.81;6288877;28;20249;-71
2022/12/21 03:23:31;;;;;;;41.93;16.97;;;;;;;-2.67;100.00;98056.09;6270481;28;20218;-72
2022/12/21 03:26:48;;;;;;;38.27;17.07;;;;;;;-2.68;100.00;98051.81;6288775;28;20237;-72
2022/12/21 03:29:55;;;;;;;42.33;15.70;;;;;;;-2.70;100.00;98062.19;6294312;28;20737;-71
2022/12/21 03:33:02;;;;;;;36.50;16.27;;;;;;;-2.70;100.00;98038.09;6290766;28;20284;-73
2022/12/21 03:36:11;;;;;;;36.93;17.20;;;;;;;-2.69;100.00;98030.28;6290970;28;20309;-71
2022/12/21 03:39:18;;;;;;;29.40;15.10;;;;;;;-2.67;100.00;98038.00;6291355;28;20227;-71
2022/12/21 03:42:25;;;;;;;39.00;16.50;;;;;;;-2.65;100.00;98037.09;6283516;28;20207;-72
2022/12/21 03:45:33;;;;;;;29.77;15.57;;;;;;;-2.62;100.00;98038.78;6294267;28;20283;-72
2022/12/21 03:48:38;;;;;;;35.90;16.00;;;;;;;-2.62;100.00;98038.78;6270874;28;20721;-72
2022/12/21 03:51:51;;;;;;;36.10;16.50;;;;;;;-2.67;100.00;98044.03;6296717;28;20700;-72
2022/12/21 03:55:08;;;;;;;34.20;16.50;;;;;;;-2.67;100.00;98049.19;6289383;28;20287;-72
2022/12/21 03:58:10;;;;;;;43.50;15.77;;;;;;;-2.68;100.00;98051.81;6279485;28;20234;-72
2022/12/21 04:01:25;;;;;;;40.27;17.67;;;;;;;-2.70;100.00;98044.13;6290853;28;20756;-72
2022/12/21 04:04:36;;;;;;;39.00;16.97;;;;;;;-2.69;100.00;98052.69;6292944;28;20232;-72
2022/12/21 04:07:40;;;;;;;35.07;15.70;;;;;;;-2.68;100.00;98047.50;6274623;28;20308;-71
2022/12/21 04:10:42;;;;;;;32.87;15.27;;;;;;;-2.66;100.00;98050.91;6293135;28;20230;-72
2022/12/21 04:13:45;;;;;;;37.20;16.53;;;;;;;-2.64;100.00;98045.72;6292627;28;20831;-71
2022/12/21 04:16:47;;;;;;;33.00;16.53;;;;;;;-2.63;100.00;98044.81;6293321;28;20276;-72
2022/12/21 04:19:58;;;;;;;27.53;13.93;;;;;;;-2.61;100.00;98051.66;6289848;28;20230;-72
2022/12/21 04:29:41;;;;;;;35.13;16.90;;;;;;;-2.55;100.00;98053.25;6292710;28;20229;-72
2022/12/21 04:32:43;;;;;;;33.07;14.77;;;;;;;-2.53;100.00;98066.13;6274538;28;20230;-73
2022/12/21 04:39:08;;;;;;;34.47;15.20;;;;;;;-2.51;100.00;98041.13;6276259;28;20229;-72
2022/12/21 04:42:10;;;;;;;30.87;15.60;;;;;;;-2.54;100.00;98023.94;6274354;28;20292;-71
2022/12/21 04:45:12;;;;;;;30.73;14.07;;;;;;;-2.54;100.00;98013.63;6294136;28;20704;-73
2022/12/21 04:48:15;;;;;;;32.57;15.57;;;;;;;-2.54;100.00;98026.53;6287128;28;20210;-72
2022/12/21 04:51:20;;;;;;;31.93;15.00;;;;;;;-2.55;100.00;98032.59;6276026;28;20210;-72
2022/12/21 04:54:23;;;;;;;33.77;15.33;;;;;;;-2.54;100.00;98031.69;6273729;28;20222;-72
2022/12/21 04:57:25;;;;;;;28.03;14.43;;;;;;;-2.58;100.00;98039.53;6293488;28;20714;-70
2022/12/21 05:00:27;;;;;;;26.47;14.20;;;;;;;-2.56;100.00;98030.88;6288346;28;20300;-72
2022/12/21 05:03:30;;;;;;;35.10;16.03;;;;;;;-2.55;100.00;98022.25;6292024;28;20218;-72
2022/12/21 05:06:33;;;;;;;31.93;14.60;;;;;;;-2.55;100.00;98037.75;6274313;28;20230;-72
2022/12/21 05:09:35;;;;;;;33.17;13.90;;;;;;;-2.56;100.00;98036.03;6291448;28;20693;-72
2022/12/21 05:12:37;;;;;;;29.87;14.33;;;;;;;-2.58;100.00;98024.88;6271960;28;20222;-72
2022/12/21 05:15:39;;;;;;;29.07;13.30;;;;;;;-2.59;100.00;98014.63;6294235;28;20767;-72
2022/12/21 05:18:43;;;;;;;28.97;13.60;;;;;;;-2.60;100.00;98016.34;6290235;28;20253;-72
2022/12/21 05:21:45;;;;;;;29.67;13.73;;;;;;;-2.57;100.00;98028.31;6272187;28;20368;-72
2022/12/21 05:24:47;;;;;;;29.40;12.97;;;;;;;-2.59;100.00;98035.28;6290504;28;20838;-72
2022/12/21 05:27:49;;;;;;;29.87;13.17;;;;;;;-2.64;100.00;98033.66;6289586;28;20226;-72
2022/12/21 05:30:51;;;;;;;25.83;12.60;;;;;;;-2.64;100.00;98033.66;6292384;28;20225;-72
2022/12/21 05:33:54;;;;;;;24.70;12.37;;;;;;;-2.63;100.00;98037.94;6293099;28;20226;-72
2022/12/21 05:36:56;;;;;;;28.57;13.87;;;;;;;-2.62;100.00;98026.72;6275756;28;20270;-72
2022/12/21 05:39:58;;;;;;;31.40;12.43;;;;;;;-2.61;100.00;98032.72;6276271;28;20284;-72
2022/12/21 05:43:01;;;;;;;28.40;12.20;;;;;;;-2.60;100.00;98037.03;6271419;28;20225;-72
2022/12/21 05:46:05;;;;;;;27.00;13.47;;;;;;;-2.56;100.00;98045.53;6286743;28;20843;-72
2022/12/21 05:49:07;;;;;;;24.03;11.73;;;;;;;-2.56;100.00;98048.97;6273334;28;20371;-72
2022/12/21 05:52:11;;;;;;;25.97;11.90;;;;;;;-2.57;100.00;98046.41;6280906;28;20460;-72
2022/12/21 05:55:14;;;;;;;25.13;12.03;;;;;;;-2.58;100.00;98042.97;6271860;28;20230;-72
2022/12/21 05:58:16;;;;;;;25.27;12.43;;;;;;;-2.56;100.00;98041.22;6291162;28;20360;-73
2022/12/21 06:01:18;;;;;;;27.97;13.37;;;;;;;-2.53;100.00;98036.00;6290042;28;20332;-73
2022/12/21 06:04:20;;;;;;;27.33;14.00;;;;;;;-2.51;100.00;98034.22;6271744;28;20233;-72
2022/12/21 06:07:22;;;;;;;25.50;12.67;;;;;;;-2.48;100.00;98041.88;6288572;28;20226;-72
2022/12/21 06:10:25;;;;;;;28.47;13.70;;;;;;;-2.46;100.00;98037.53;6289402;28;20222;-72
2022/12/21 06:13:27;;;;;;;31.70;12.17;;;;;;;-2.47;100.00;98033.25;6288554;28;20240;-72
2022/12/21 06:16:29;;;;;;;34.13;15.17;;;;;;;-2.46;100.00;98024.63;6260821;28;20592;-72
2022/12/21 06:19:33;;;;;;;30.00;14.27;;;;;;;-2.51;100.00;98023.03;6270425;28;20226;-72
2022/12/21 06:22:35;;;;;;;23.90;13.13;;;;;;;-2.56;100.00;98023.13;6270039;28;20227;-72
2022/12/21 06:25:37;;;;;;;32.63;14.03;;;;;;;-2.57;100.00;98025.75;6290020;28;20238;-72
2022/12/21 06:28:39;;;;;;;33.17;14.37;;;;;;;-2.55;100.00;98035.16;6270572;28;20228;-71
2022/12/21 06:31:41;;;;;;;27.03;13.30;;;;;;;-2.53;100.00;98030.81;6269525;28;20256;-72
2022/12/21 06:34:43;;;;;;;36.03;15.33;;;;;;;-2.50;100.00;98028.19;6289301;28;20324;-72
2022/12/21 06:37:45;;;;;;;32.20;16.10;;;;;;;-2.47;100.00;98024.66;6270900;28;20990;-72
2022/12/21 06:40:59;;;;;;;30.63;14.07;;;;;;;-2.47;100.00;98025.50;6290810;28;20735;-72
2022/12/21 06:44:01;;;;;;;29.40;13.80;;;;;;;-2.47;100.00;98024.66;6285383;28;20230;-72
2022/12/21 06:47:03;;;;;;;34.33;14.47;;;;;;;-2.53;100.00;98024.81;6270751;28;20241;-73
2022/12/21 06:50:06;;;;;;;30.53;14.67;;;;;;;-2.56;100.00;98032.59;6289803;28;20272;-72
2022/12/21 06:53:08;;;;;;;32.23;15.07;;;;;;;-2.55;100.00;98039.47;6290182;28;20245;-72
2022/12/21 06:56:13;;;;;;;29.63;13.57;;;;;;;-2.53;100.00;98033.41;6291066;28;20233;-72
2022/12/21 06:59:21;;;;;;;32.57;15.07;;;;;;;-2.50;100.00;98035.06;6270478;28;20237;-72
2022/12/21 07:02:23;;;;;;;30.97;14.37;;;;;;;-2.50;100.00;98029.91;6275194;28;20603;-72
2022/12/21 07:05:25;;;;;;;30.53;13.73;;;;;;;-2.53;100.00;98042.88;6271933;28;20219;-72
2022/12/21 07:08:28;;;;;;;26.53;11.90;;;;;;;-2.51;100.00;98038.53;6292335;28;20229;-72
2022/12/21 07:11:30;;;;;;;28.20;12.60;;;;;;;-2.48;100.00;98043.63;6277357;28;20230;-72
2022/12/21 07:14:32;;;;;;;35.27;14.53;;;;;;;-2.52;100.00;98042.00;6294889;28;20226;-72
2022/12/21 07:17:35;;;;;;;31.07;12.70;;;;;;;-2.53;100.00;98043.75;6279430;28;20777;-71
2022/12/21 07:20:37;;;;;;;30.73;13.00;;;;;;;-2.52;100.00;98036.84;6293781;28;20283;-72
2022/12/21 07:23:40;;;;;;;31.33;14.67;;;;;;;-2.52;100.00;98039.41;6275198;28;20255;-71
2022/12/21 07:26:42;;;;;;;32.27;13.87;;;;;;;-2.54;100.00;98039.44;6293803;28;20233;-72
2022/12/21 07:29:44;;;;;;;30.17;13.43;;;;;;;-2.47;100.00;98043.59;6293685;28;20230;-70
2022/12/21 07:32:46;;;;;;;29.40;13.50;;;;;;;-2.45;100.00;98039.25;6293558;28;20229;-72
2022/12/21 07:35:48;;;;;;;25.47;13.13;;;;;;;-2.38;100.00;98033.03;6277183;28;20761;-72
2022/12/21 07:38:52;;;;;;;33.20;13.90;;;;;;;-2.31;100.00;98026.88;6284882;28;20301;-72
2022/12/21 07:41:54;;;;;;;29.27;13.90;;;;;;;-2.25;100.00;98042.22;6294158;28;20351;-70
2022/12/21 07:44:56;;;;;;;29.57;13.77;;;;;;;-2.20;100.00;98034.38;6293783;28;20330;-72
2022/12/21 07:48:07;;;;;;;30.77;13.50;;;;;;;-2.13;100.00;98038.50;6256132;28;20263;-72
2022/12/21 07:51:10;;;;;;;22.77;11.90;;;;;;;-2.07;100.00;98043.50;6294440;28;20226;-72
2022/12/21 07:54:12;;;;;;;22.70;11.57;;;;;;;-2.04;100.00;98048.59;6293684;28;20222;-72
2022/12/21 07:57:14;;;;;;;25.77;11.90;;;;;;;-1.99;100.00;98044.16;6274340;28;20213;-72
2022/12/21 08:00:17;;;;;;;20.83;11.30;;;;;;;-1.94;100.00;98044.91;6275049;28;20307;-73
2022/12/21 08:03:20;;;;;;;25.93;12.00;;;;;;;-1.92;100.00;98040.56;6276657;28;20221;-72
2022/12/21 08:06:22;;;;;;;25.37;12.47;;;;;;;-1.92;100.00;98032.78;6291098;28;20309;-72
2022/12/21 08:09:24;;;;;;;24.17;12.40;;;;;;;-1.89;100.00;98029.25;6292984;28;20281;-70
2022/12/21 08:12:28;;;;;;;27.63;13.47;;;;;;;-1.89;100.00;98024.94;6292311;28;20244;-72
2022/12/21 08:15:30;;;;;;;25.27;12.63;;;;;;;-1.86;100.00;98022.28;6274087;28;22256;-72
2022/12/21 08:18:32;;;;;;;26.50;12.07;;;;;;;-1.81;100.00;98021.31;6292799;28;20307;-72
2022/12/21 08:21:34;;;;;;;26.43;12.53;;;;;;;-1.85;100.00;98025.72;6273522;28;20251;-73
2022/12/21 08:24:37;;;;;;;22.10;11.33;;;;;;;-1.86;100.00;98031.78;6290986;28;20234;-72
2022/12/21 08:27:39;;;;;;;29.53;13.13;;;;;;;-1.82;100.00;98033.41;6272548;28;20353;-72
2022/12/21 08:30:41;;;;;;;23.93;11.10;;;;;;;-1.80;100.00;98023.03;6291742;28;20252;-72
2022/12/21 08:33:45;;;;;;;28.03;12.10;;;;;;;-1.77;99.92;98028.94;6281487;28;20230;-73
2022/12/21 08:36:47;;;;;;;29.77;13.20;;;;;;;-1.74;99.67;98022.84;6292326;28;20229;-72
2022/12/21 08:39:49;;;;;;;23.03;11.13;;;;;;;-1.68;99.59;98023.53;6274376;28;20229;-72
2022/12/21 08:42:51;;;;;;;24.40;12.27;;;;;;;-1.68;99.61;98022.69;6272739;28;20249;-72
2022/12/21 08:45:54;;;;;;;30.70;13.07;;;;;;;-1.64;99.53;98022.56;6290372;28;20238;-72
2022/12/21 08:48:56;;;;;;;26.07;12.30;;;;;;;-1.61;99.25;98014.75;6291637;28;20233;-73
2022/12/21 08:51:58;;;;;;;23.07;11.90;;;;;;;-1.57;99.27;98020.66;6294180;28;20447;-72
2022/12/21 08:55:00;;;;;;;25.60;11.67;;;;;;;-1.57;98.59;98006.00;6291522;28;20241;-72
2022/12/21 08:58:02;;;;;;;26.97;13.90;;;;;;;-1.51;98.74;98005.00;6293316;28;20705;-73
2022/12/21 09:01:04;;;;;;;24.17;11.90;;;;;;;-1.52;98.28;98004.16;6275845;28;20249;-73
2022/12/21 09:04:07;;;;;;;25.33;12.20;;;;;;;-1.54;97.92;98002.47;6269528;28;20246;-72
2022/12/21 09:07:09;;;;;;;25.43;12.07;;;;;;;-1.58;97.86;98006.03;6290515;28;20712;-72
2022/12/21 09:10:11;;;;;;;23.80;11.63;;;;;;;-1.57;98.08;97994.78;6275514;28;20747;-72
2022/12/21 09:13:13;;;;;;;25.47;13.03;;;;;;;-1.51;97.62;97997.22;6273252;28;20234;-73
2022/12/21 09:16:19;;;;;;;24.93;12.40;;;;;;;-1.49;97.47;97988.50;6275966;28;20624;-73
2022/12/21 09:19:21;;;;;;;25.83;11.70;;;;;;;-1.52;97.20;97992.94;6294060;28;20236;-72
2022/12/21 09:22:23;;;;;;;24.60;11.97;;;;;;;-1.45;97.30;97989.28;6290100;28;20234;-73
2022/12/21 09:25:25;;;;;;;27.13;12.83;;;;;;;-1.38;97.08;97987.38;6273957;28;20225;-73
2022/12/21 09:28:27;;;;;;;26.97;11.60;;;;;;;-1.35;96.36;97989.88;6291697;28;20233;-74
2022/12/21 09:31:30;;;;;;;22.83;11.20;;;;;;;-1.34;96.06;97994.16;6292060;28;20234;-72
2022/12/21 09:34:32;;;;;;;26.37;12.87;;;;;;;-1.35;95.82;97995.91;6289002;28;20601;-73
2022/12/21 09:37:34;;;;;;;31.87;14.00;;;;;;;-1.46;96.02;98005.72;6292721;28;20229;-73
2022/12/21 09:40:40;;;;;;;32.13;13.47;;;;;;;-1.42;96.06;97996.13;6290607;28;20606;-73
2022/12/21 09:44:13;;;;;;;24.93;12.77;;;;;;;-1.37;96.11;97994.25;6272100;28;20228;-73
2022/12/21 09:47:21;;;;;;;27.63;12.80;;;;;;;-1.28;96.12;97986.22;6292626;28;20355;-73
2022/12/21 09:50:29;;;;;;;28.93;13.50;;;;;;;-1.33;95.84;97999.31;6285164;28;20261;-74
2022/12/21 09:53:41;;;;;;;30.73;13.43;;;;;;;-1.29;95.99;97994.88;6291885;28;20227;-74
2022/12/21 09:56:49;;;;;;;34.17;13.53;;;;;;;-1.20;96.08;97995.47;6270007;28;20235;-73
2022/12/21 09:59:51;;;;;;;32.67;14.63;;;;;;;-1.11;96.16;98002.16;6292306;28;20222;-70
2022/12/21 10:03:26;;;;;;;33.90;14.00;;;;;;;-1.05;95.53;98007.13;6272584;28;20229;-72
2022/12/21 10:06:53;;;;;;;26.73;12.87;;;;;;;-0.93;95.62;97995.56;6273921;28;20230;-73
2022/12/21 10:10:01;;;;;;;30.47;13.47;;;;;;;-0.87;94.97;97993.63;6291903;28;20229;-73
2022/12/21 10:13:07;;;;;;;28.27;13.03;;;;;;;-0.77;94.83;97997.66;6289531;28;20233;-73
2022/12/21 10:16:15;;;;;;;32.83;14.53;;;;;;;-0.75;94.17;97982.06;6289433;28;20230;-74
2022/12/21 10:19:27;;;;;;;27.43;13.47;;;;;;;-0.63;93.89;97975.66;6273112;28;20238;-73
2022/12/21 10:22:36;;;;;;;25.67;13.83;;;;;;;-0.56;93.43;97974.56;6274509;28;20257;-73
2022/12/21 10:25:46;;;;;;;31.10;13.80;;;;;;;-0.52;93.09;97966.66;6272248;28;20779;-73
2022/12/21 10:28:59;;;;;;;27.20;13.53;;;;;;;-0.47;92.61;97974.28;6270610;28;20234;-74
2022/12/21 10:32:02;;;;;;;28.80;13.17;;;;;;;-0.48;92.20;97957.88;6286679;28;20230;-72
2022/12/21 10:35:23;;;;;;;30.00;14.20;;;;;;;-0.60;91.33;97965.22;6272062;28;20232;-73
2022/12/21 10:38:29;;;;;;;28.60;13.20;;;;;;;-0.65;92.37;97957.56;6272131;28;20275;-72
2022/12/21 10:41:38;;;;;;;30.00;14.23;;;;;;;-0.78;91.94;97953.66;6268208;28;20226;-74
2022/12/21 10:44:40;;;;;;;28.27;14.23;;;;;;;-0.85;91.67;97954.75;6271898;28;20230;-73
2022/12/21 10:47:44;;;;;;;29.43;14.07;;;;;;;-0.81;92.71;97936.47;6296080;28;20221;-74
2022/12/21 10:50:51;;;;;;;31.57;13.23;;;;;;;-0.79;92.55;97928.63;6278964;28;20739;-74
2022/12/21 10:54:06;;;;;;;33.07;14.50;;;;;;;-0.77;91.68;97940.66;6293182;28;20235;-74
2022/12/21 10:57:08;;;;;;;29.67;14.17;;;;;;;-0.76;91.77;97923.38;6273928;28;20234;-74
2022/12/21 11:00:29;;;;;;;27.80;13.47;;;;;;;-0.71;91.66;97920.66;6293640;28;20236;-74
2022/12/21 11:03:37;;;;;;;31.50;13.73;;;;;;;-0.66;91.55;97927.34;6282029;28;20595;-74
2022/12/21 11:06:53;;;;;;;31.13;14.13;;;;;;;-0.62;91.28;97917.75;6294340;28;20222;-74
2022/12/21 11:10:01;;;;;;;29.93;13.07;;;;;;;-0.51;91.57;97898.38;6276132;28;20226;-73
2022/12/21 11:13:25;;;;;;;27.23;14.00;;;;;;;-0.45;90.64;97905.09;6291023;28;20265;-74
2022/12/21 11:16:30;;;;;;;28.47;13.43;;;;;;;-0.43;91.13;97886.00;6298795;28;20249;-74
2022/12/21 11:19:35;;;;;;;30.20;15.23;;;;;;;-0.38;90.75;97899.66;6293980;28;20283;-73
2022/12/21 11:22:41;;;;;;;33.80;15.00;;;;;;;-0.42;90.73;97897.22;6272474;28;20379;-73
2022/12/21 11:26:00;;;;;;;32.90;14.97;;;;;;;-0.42;90.61;97918.81;6289407;28;20740;-74
2022/12/21 11:29:06;;;;;;;28.67;13.40;;;;;;;-0.28;90.53;97895.00;6275350;28;20230;-73
2022/12/21 11:32:12;;;;;;;30.43;13.83;;;;;;;-0.22;89.84;97896.56;6279082;28;20324;-73
2022/12/21 11:35:24;;;;;;;24.03;13.00;;;;;;;-0.25;89.73;97901.84;6293644;28;20237;-75
2022/12/21 11:38:34;;;;;;;26.27;13.43;;;;;;;-0.24;89.93;97898.34;6291532;28;20237;-74
2022/12/21 11:41:36;;;;;;;25.03;13.13;;;;;;;-0.17;89.62;97898.06;6273265;28;20238;-73
2022/12/21 11:44:38;;;;;;;26.77;12.40;;;;;;;-0.08;89.39;97902.94;6275996;28;20225;-72
2022/12/21 11:48:04;;;;;;;27.60;11.97;;;;;;;-0.06;88.52;97890.78;6276200;28;20931;-74
2022/12/21 11:51:25;;;;;;;21.77;12.40;;;;;;;-0.08;88.08;97894.31;6267765;28;20574;-73
2022/12/21 11:54:51;;;;;;;25.00;12.13;;;;;;;-0.05;88.85;97896.81;6290013;28;20227;-74
2022/12/21 11:58:22;;;;;;;25.70;12.57;;;;;;;-0.02;88.10;97894.97;6295172;28;20237;-74
2022/12/21 12:01:59;;;;;;;29.97;13.10;;;;;;;0.04;88.28;97906.03;6286737;28;20261;-72
2022/12/21 12:05:31;;;;;;;25.77;11.63;;;;;;;0.01;87.50;97891.41;6291169;28;20284;-74
2022/12/21 12:09:01;;;;;;;23.67;12.30;;;;;;;0.03;88.35;97881.81;6291610;28;20230;-74
2022/12/21 12:12:42;;;;;;;24.80;12.10;;;;;;;0.03;87.83;97889.59;6273629;28;20236;-74
2022/12/21 12:16:13;;;;;;;25.07;12.77;;;;;;;-0.06;87.94;97892.53;6293273;28;21054;-75
2022/12/21 12:19:18;;;;;;;24.90;12.13;;;;;;;-0.10;87.88;97896.16;6292390;28;20320;-72
2022/12/21 12:23:01;;;;;;;24.03;11.67;;;;;;;-0.05;88.04;97902.84;6290568;28;20287;-74
2022/12/21 12:26:25;;;;;;;26.43;13.10;;;;;;;-0.14;88.10;97903.16;6277368;28;20228;-73
2022/12/21 12:29:36;;;;;;;27.53;13.00;;;;;;;-0.18;88.40;97893.78;6290539;28;20229;-74
2022/12/21 12:33:01;;;;;;;23.83;13.07;;;;;;;-0.24;88.07;97894.00;6276855;28;20877;-74
2022/12/21 12:36:32;;;;;;;29.83;12.57;;;;;;;-0.29;88.69;97897.63;6289966;28;20237;-75
2022/12/21 12:39:48;;;;;;;30.10;14.13;;;;;;;-0.25;89.18;97889.72;6276498;28;20274;-74
2022/12/21 12:42:56;;;;;;;27.83;13.03;;;;;;;-0.13;88.77;97878.09;6290551;28;20245;-74
2022/12/21 12:46:46;;;;;;;28.20;14.13;;;;;;;-0.13;87.92;97881.53;6288458;28;20716;-75
2022/12/21 12:50:07;;;;;;;25.83;12.13;;;;;;;-0.23;88.72;97871.53;6277054;28;20241;-73
2022/12/21 12:53:34;;;;;;;27.80;12.83;;;;;;;-0.28;88.66;97876.84;6278904;28;20230;-74
2022/12/21 12:57:12;;;;;;;24.50;12.93;;;;;;;-0.25;88.35;97870.72;6272593;28;20262;-75
2022/12/21 13:00:18;;;;;;;22.67;11.67;;;;;;;-0.17;88.38;97869.53;6255914;28;20237;-76
2022/12/21 13:03:32;;;;;;;24.63;12.37;;;;;;;-0.15;88.59;97869.50;6288331;28;20246;-75
2022/12/21 13:06:54;;;;;;;29.87;14.03;;;;;;;-0.19;88.30;97873.94;6268732;28;20593;-76
2022/12/21 13:10:14;;;;;;;26.67;12.77;;;;;;;-0.23;88.32;97877.56;6293052;28;20226;-73
2022/12/21 13:13:46;;;;;;;22.90;12.53;;;;;;;-0.18;89.15;97882.56;6273579;28;20592;-77
2022/12/21 13:17:32;;;;;;;24.70;12.67;;;;;;;-0.19;88.31;97896.44;6274774;28;20238;-75
2022/12/21 13:20:36;;;;;;;22.33;11.37;;;;;;;-0.14;88.33;97897.13;6285297;28;20318;-76
2022/12/21 13:23:46;;;;;;;27.07;12.43;;;;;;;-0.05;88.13;97895.06;6274543;28;20272;-75
2022/12/21 13:26:53;;;;;;;27.70;13.37;;;;;;;-0.01;87.77;97890.63;6282191;28;20249;-74
2022/12/21 13:30:03;;;;;;;24.67;13.03;;;;;;;0.03;87.52;97886.16;6292848;28;20803;-76
2022/12/21 13:33:10;;;;;;;24.10;12.27;;;;;;;0.04;87.63;97880.94;6293454;28;20715;-75
2022/12/21 13:36:15;;;;;;;24.47;12.23;;;;;;;0.06;87.69;97873.94;6272985;28;20690;-76
2022/12/21 13:39:33;;;;;;;24.40;12.17;;;;;;;0.06;88.03;97867.91;6290703;28;20694;-75
2022/12/21 13:42:56;;;;;;;22.07;11.40;;;;;;;0.04;87.75;97880.06;6279467;28;20261;-76
2022/12/21 13:46:06;;;;;;;22.87;12.33;;;;;;;-0.01;88.43;97868.13;6272426;28;20284;-76
2022/12/21 13:49:39;;;;;;;25.63;13.07;;;;;;;-0.04;88.19;97876.00;6275024;28;20229;-76
2022/12/21 13:53:13;;;;;;;24.90;13.33;;;;;;;-0.13;88.01;97885.88;6278470;28;20230;-75
2022/12/21 13:56:46;;;;;;;22.97;12.10;;;;;;;-0.23;88.66;97887.06;6294753;28;20226;-76
2022/12/21 14:00:03;;;;;;;28.77;12.80;;;;;;;-0.30;89.10;97881.22;6268706;28;20234;-77
2022/12/21 14:03:54;;;;;;;24.17;11.23;;;;;;;-0.31;89.67;97858.81;6289054;28;20268;-76
2022/12/21 14:07:33;;;;;;;29.93;12.80;;;;;;;-0.38;89.99;97852.97;6262606;28;20241;-76
2022/12/21 14:11:17;;;;;;;23.67;12.23;;;;;;;-0.33;89.58;97857.16;6289478;28;20226;-74
2022/12/21 14:14:25;;;;;;;26.73;12.63;;;;;;;-0.33;89.87;97858.03;6263318;28;20800;-76
2022/12/21 14:17:33;;;;;;;27.00;12.87;;;;;;;-0.37;89.90;97851.22;6289930;28;20235;-75
2022/12/21 14:20:37;;;;;;;25.53;13.77;;;;;;;-0.43;90.41;97860.06;6288302;28;20603;-76
2022/12/21 14:23:54;;;;;;;24.30;12.07;;;;;;;-0.44;90.68;97860.13;6289650;28;20678;-76
2022/12/21 14:27:19;;;;;;;24.50;11.83;;;;;;;-0.44;90.85;97867.91;6289982;28;20241;-74
2022/12/21 14:30:29;;;;;;;23.03;12.03;;;;;;;-0.47;90.89;97868.84;6288760;28;20226;-77
2022/12/21 14:33:40;;;;;;;29.27;13.17;;;;;;;-0.49;90.49;97860.25;6290023;28;20355;-76
2022/12/21 14:37:08;;;;;;;23.23;12.07;;;;;;;-0.54;90.64;97859.59;6256432;28;20286;-74